sensor_id;sensor_type;location;lat;lon;timestamp;P1;durP1;ratioP1;P2;durP2;ratioP2
5795;SDS011;2924;51.458;7.046;2023-04-01T00:01:05;1.97;;;0.83;;
5795;SDS011;2924;51.458;7.046;2023-04-01T00:03:31;2.63;;;0.80;;
5795;SDS011;2924;51.458;7.046;2023-04-01T00:05:58;3.90;;;1.23;;
5795;SDS011;2924;51.458;7.046;2023-04-01T00:08:24;3.97;;;1.07;;
5795;SDS011;2924;51.458;7.046;2023-04-01T00:10:51;4.13;;;1.37;;
5795;SDS011;2924;51.458;7.046;2023-04-01T00:13:17;2.50;;;0.83;;
5795;SDS011;2924;51.458;7.046;2023-04-01T00:15:43;3.67;;;1.00;;
5795;SDS011;2924;51.458;7.046;2023-04-01T00:18:09;7.50;;;1.40;;
5795;SDS011;2924;51.458;7.046;2023-04-01T00:20:35;6.47;;;1.50;;
5795;SDS011;2924;51.458;7.046;2023-04-01T00:23:01;3.20;;;0.73;;
5795;SDS011;2924;51.458;7.046;2023-04-01T00:25:27;3.70;;;1.07;;
5795;SDS011;2924;51.458;7.046;2023-04-01T00:27:53;4.17;;;1.13;;
5795;SDS011;2924;51.458;7.046;2023-04-01T00:30:18;3.70;;;0.87;;
5795;SDS011;2924;51.458;7.046;2023-04-01T00:32:44;3.00;;;0.70;;
5795;SDS011;2924;51.458;7.046;2023-04-01T00:35:10;1.17;;;0.77;;
5795;SDS011;2924;51.458;7.046;2023-04-01T00:37:37;5.20;;;1.03;;
5795;SDS011;2924;51.458;7.046;2023-04-01T00:40:07;5.60;;;1.43;;
5795;SDS011;2924;51.458;7.046;2023-04-01T00:42:45;5.03;;;0.87;;
5795;SDS011;2924;51.458;7.046;2023-04-01T00:45:28;0.83;;;0.60;;
5795;SDS011;2924;51.458;7.046;2023-04-01T00:47:56;1.80;;;0.80;;
5795;SDS011;2924;51.458;7.046;2023-04-01T00:50:25;1.27;;;1.03;;
5795;SDS011;2924;51.458;7.046;2023-04-01T00:52:53;2.93;;;0.73;;
5795;SDS011;2924;51.458;7.046;2023-04-01T00:55:18;3.87;;;0.97;;
5795;SDS011;2924;51.458;7.046;2023-04-01T00:57:46;3.80;;;0.93;;
5795;SDS011;2924;51.458;7.046;2023-04-01T01:00:14;2.60;;;0.63;;
5795;SDS011;2924;51.458;7.046;2023-04-01T01:02:43;2.87;;;0.80;;
5795;SDS011;2924;51.458;7.046;2023-04-01T01:05:14;2.87;;;0.60;;
5795;SDS011;2924;51.458;7.046;2023-04-01T01:07:44;1.20;;;0.90;;
5795;SDS011;2924;51.458;7.046;2023-04-01T01:10:35;1.60;;;0.90;;
5795;SDS011;2924;51.458;7.046;2023-04-01T01:15:56;6.03;;;1.13;;
5795;SDS011;2924;51.458;7.046;2023-04-01T01:37:10;1.50;;;0.70;;
5795;SDS011;2924;51.458;7.046;2023-04-01T01:39:38;0.63;;;0.60;;
5795;SDS011;2924;51.458;7.046;2023-04-01T01:42:07;3.37;;;0.73;;
5795;SDS011;2924;51.458;7.046;2023-04-01T01:44:36;3.77;;;0.90;;
5795;SDS011;2924;51.458;7.046;2023-04-01T01:47:03;4.80;;;0.73;;
5795;SDS011;2924;51.458;7.046;2023-04-01T01:49:30;1.33;;;0.70;;
5795;SDS011;2924;51.458;7.046;2023-04-01T01:51:58;2.10;;;0.80;;
5795;SDS011;2924;51.458;7.046;2023-04-01T01:54:24;6.70;;;1.23;;
5795;SDS011;2924;51.458;7.046;2023-04-01T01:56:51;1.03;;;0.70;;
5795;SDS011;2924;51.458;7.046;2023-04-01T01:59:35;0.80;;;0.70;;
5795;SDS011;2924;51.458;7.046;2023-04-01T02:02:03;2.23;;;0.57;;
5795;SDS011;2924;51.458;7.046;2023-04-01T02:04:34;2.30;;;0.77;;
5795;SDS011;2924;51.458;7.046;2023-04-01T02:07:04;2.93;;;0.90;;
5795;SDS011;2924;51.458;7.046;2023-04-01T02:09:36;1.17;;;0.70;;
5795;SDS011;2924;51.458;7.046;2023-04-01T02:12:06;3.80;;;1.10;;
5795;SDS011;2924;51.458;7.046;2023-04-01T02:14:42;1.60;;;0.90;;
5795;SDS011;2924;51.458;7.046;2023-04-01T02:17:21;3.47;;;0.60;;
5795;SDS011;2924;51.458;7.046;2023-04-01T02:19:56;0.73;;;0.60;;
5795;SDS011;2924;51.458;7.046;2023-04-01T02:22:28;1.87;;;0.90;;
5795;SDS011;2924;51.458;7.046;2023-04-01T02:24:58;1.53;;;0.70;;
5795;SDS011;2924;51.458;7.046;2023-04-01T02:27:27;3.70;;;0.77;;
5795;SDS011;2924;51.458;7.046;2023-04-01T02:29:53;2.43;;;0.50;;
5795;SDS011;2924;51.458;7.046;2023-04-01T02:32:19;0.60;;;0.50;;
5795;SDS011;2924;51.458;7.046;2023-04-01T02:34:46;1.73;;;0.50;;
5795;SDS011;2924;51.458;7.046;2023-04-01T02:37:12;5.70;;;0.80;;
5795;SDS011;2924;51.458;7.046;2023-04-01T02:39:39;2.53;;;1.13;;
5795;SDS011;2924;51.458;7.046;2023-04-01T02:42:05;1.70;;;0.60;;
5795;SDS011;2924;51.458;7.046;2023-04-01T02:44:31;2.73;;;0.83;;
5795;SDS011;2924;51.458;7.046;2023-04-01T02:46:56;1.53;;;0.60;;
5795;SDS011;2924;51.458;7.046;2023-04-01T02:49:22;4.20;;;0.83;;
5795;SDS011;2924;51.458;7.046;2023-04-01T02:51:48;4.73;;;0.80;;
5795;SDS011;2924;51.458;7.046;2023-04-01T02:54:13;1.50;;;0.80;;
5795;SDS011;2924;51.458;7.046;2023-04-01T02:56:39;9.10;;;0.77;;
5795;SDS011;2924;51.458;7.046;2023-04-01T02:59:04;2.87;;;0.50;;
5795;SDS011;2924;51.458;7.046;2023-04-01T03:01:30;7.13;;;0.73;;
5795;SDS011;2924;51.458;7.046;2023-04-01T03:03:56;15.73;;;1.10;;
5795;SDS011;2924;51.458;7.046;2023-04-01T03:06:21;0.90;;;0.90;;
5795;SDS011;2924;51.458;7.046;2023-04-01T03:08:47;2.93;;;1.00;;
5795;SDS011;2924;51.458;7.046;2023-04-01T03:11:13;1.80;;;0.70;;
5795;SDS011;2924;51.458;7.046;2023-04-01T03:13:39;3.50;;;0.60;;
5795;SDS011;2924;51.458;7.046;2023-04-01T03:16:04;0.80;;;0.70;;
5795;SDS011;2924;51.458;7.046;2023-04-01T03:18:31;1.70;;;0.60;;
5795;SDS011;2924;51.458;7.046;2023-04-01T03:20:56;4.77;;;0.70;;
5795;SDS011;2924;51.458;7.046;2023-04-01T03:23:22;1.90;;;0.70;;
5795;SDS011;2924;51.458;7.046;2023-04-01T03:25:49;1.40;;;0.80;;
5795;SDS011;2924;51.458;7.046;2023-04-01T03:28:15;0.80;;;0.80;;
5795;SDS011;2924;51.458;7.046;2023-04-01T03:30:40;11.17;;;1.10;;
5795;SDS011;2924;51.458;7.046;2023-04-01T03:33:06;1.47;;;0.90;;
5795;SDS011;2924;51.458;7.046;2023-04-01T03:35:32;1.80;;;1.40;;
5795;SDS011;2924;51.458;7.046;2023-04-01T03:37:58;1.27;;;1.00;;
5795;SDS011;2924;51.458;7.046;2023-04-01T03:40:24;3.33;;;1.33;;
5795;SDS011;2924;51.458;7.046;2023-04-01T03:42:51;4.23;;;1.07;;
5795;SDS011;2924;51.458;7.046;2023-04-01T03:45:17;1.47;;;1.33;;
5795;SDS011;2924;51.458;7.046;2023-04-01T03:47:43;0.90;;;0.90;;
5795;SDS011;2924;51.458;7.046;2023-04-01T03:50:09;1.33;;;0.90;;
5795;SDS011;2924;51.458;7.046;2023-04-01T03:52:35;40.57;;;2.03;;
5795;SDS011;2924;51.458;7.046;2023-04-01T03:55:01;2.00;;;0.97;;
5795;SDS011;2924;51.458;7.046;2023-04-01T03:57:27;1.30;;;1.30;;
5795;SDS011;2924;51.458;7.046;2023-04-01T03:59:53;1.07;;;0.80;;
5795;SDS011;2924;51.458;7.046;2023-04-01T04:02:18;1.60;;;1.00;;
5795;SDS011;2924;51.458;7.046;2023-04-01T04:04:44;6.23;;;1.43;;
5795;SDS011;2924;51.458;7.046;2023-04-01T04:07:11;1.63;;;1.00;;
5795;SDS011;2924;51.458;7.046;2023-04-01T04:09:37;3.00;;;1.80;;
5795;SDS011;2924;51.458;7.046;2023-04-01T04:12:02;2.60;;;1.60;;
5795;SDS011;2924;51.458;7.046;2023-04-01T04:14:28;2.00;;;1.90;;
5795;SDS011;2924;51.458;7.046;2023-04-01T04:16:53;2.90;;;1.63;;
5795;SDS011;2924;51.458;7.046;2023-04-01T04:19:19;3.13;;;1.33;;
5795;SDS011;2924;51.458;7.046;2023-04-01T04:21:45;2.03;;;1.33;;
5795;SDS011;2924;51.458;7.046;2023-04-01T04:24:10;2.10;;;1.53;;
5795;SDS011;2924;51.458;7.046;2023-04-01T04:26:36;2.77;;;1.20;;
5795;SDS011;2924;51.458;7.046;2023-04-01T04:29:02;1.07;;;1.07;;
5795;SDS011;2924;51.458;7.046;2023-04-01T04:31:28;2.07;;;1.80;;
5795;SDS011;2924;51.458;7.046;2023-04-01T04:33:53;2.00;;;1.90;;
5795;SDS011;2924;51.458;7.046;2023-04-01T04:36:19;1.40;;;1.30;;
5795;SDS011;2924;51.458;7.046;2023-04-01T04:38:46;3.83;;;3.00;;
5795;SDS011;2924;51.458;7.046;2023-04-01T04:41:13;3.23;;;1.60;;
5795;SDS011;2924;51.458;7.046;2023-04-01T04:43:40;2.30;;;1.70;;
5795;SDS011;2924;51.458;7.046;2023-04-01T04:46:07;2.27;;;1.63;;
5795;SDS011;2924;51.458;7.046;2023-04-01T04:48:33;1.33;;;1.33;;
5795;SDS011;2924;51.458;7.046;2023-04-01T04:50:58;1.40;;;1.30;;
5795;SDS011;2924;51.458;7.046;2023-04-01T04:53:24;1.67;;;1.57;;
5795;SDS011;2924;51.458;7.046;2023-04-01T04:55:51;1.83;;;1.70;;
5795;SDS011;2924;51.458;7.046;2023-04-01T04:58:17;1.40;;;1.27;;
5795;SDS011;2924;51.458;7.046;2023-04-01T05:00:43;3.23;;;1.80;;
5795;SDS011;2924;51.458;7.046;2023-04-01T05:03:09;2.13;;;2.03;;
5795;SDS011;2924;51.458;7.046;2023-04-01T05:05:36;2.80;;;2.10;;
5795;SDS011;2924;51.458;7.046;2023-04-01T05:08:02;2.60;;;2.40;;
5795;SDS011;2924;51.458;7.046;2023-04-01T05:10:28;3.33;;;3.03;;
5795;SDS011;2924;51.458;7.046;2023-04-01T05:12:54;2.37;;;2.17;;
5795;SDS011;2924;51.458;7.046;2023-04-01T05:15:20;2.30;;;1.90;;
5795;SDS011;2924;51.458;7.046;2023-04-01T05:17:45;2.30;;;2.10;;
5795;SDS011;2924;51.458;7.046;2023-04-01T05:20:12;2.13;;;2.03;;
5795;SDS011;2924;51.458;7.046;2023-04-01T05:22:39;2.10;;;2.10;;
5795;SDS011;2924;51.458;7.046;2023-04-01T05:25:05;2.30;;;2.10;;
5795;SDS011;2924;51.458;7.046;2023-04-01T05:27:31;2.00;;;1.90;;
5795;SDS011;2924;51.458;7.046;2023-04-01T05:29:57;2.33;;;2.13;;
5795;SDS011;2924;51.458;7.046;2023-04-01T05:32:23;2.07;;;1.97;;
5795;SDS011;2924;51.458;7.046;2023-04-01T05:34:52;2.70;;;2.60;;
5795;SDS011;2924;51.458;7.046;2023-04-01T05:37:18;3.13;;;2.90;;
5795;SDS011;2924;51.458;7.046;2023-04-01T05:39:44;3.77;;;2.70;;
5795;SDS011;2924;51.458;7.046;2023-04-01T05:42:09;3.00;;;2.80;;
5795;SDS011;2924;51.458;7.046;2023-04-01T05:44:35;2.90;;;2.70;;
5795;SDS011;2924;51.458;7.046;2023-04-01T05:47:02;5.10;;;2.73;;
5795;SDS011;2924;51.458;7.046;2023-04-01T05:49:28;4.47;;;3.50;;
5795;SDS011;2924;51.458;7.046;2023-04-01T05:51:54;3.77;;;3.47;;
5795;SDS011;2924;51.458;7.046;2023-04-01T05:54:20;4.00;;;3.60;;
5795;SDS011;2924;51.458;7.046;2023-04-01T05:56:46;2.40;;;2.30;;
5795;SDS011;2924;51.458;7.046;2023-04-01T05:59:12;2.70;;;2.60;;
5795;SDS011;2924;51.458;7.046;2023-04-01T06:01:38;2.50;;;2.40;;
5795;SDS011;2924;51.458;7.046;2023-04-01T06:04:04;3.07;;;2.87;;
5795;SDS011;2924;51.458;7.046;2023-04-01T06:06:30;6.37;;;4.37;;
5795;SDS011;2924;51.458;7.046;2023-04-01T06:08:57;3.30;;;3.10;;
5795;SDS011;2924;51.458;7.046;2023-04-01T06:12:16;3.60;;;3.30;;
5795;SDS011;2924;51.458;7.046;2023-04-01T06:44:30;3.13;;;2.93;;
5795;SDS011;2924;51.458;7.046;2023-04-01T06:47:26;3.63;;;3.20;;
5795;SDS011;2924;51.458;7.046;2023-04-01T06:49:50;5.87;;;3.13;;
5795;SDS011;2924;51.458;7.046;2023-04-01T06:52:36;4.47;;;3.40;;
5795;SDS011;2924;51.458;7.046;2023-04-01T06:55:20;7.03;;;3.80;;
5795;SDS011;2924;51.458;7.046;2023-04-01T06:57:53;4.30;;;2.97;;
5795;SDS011;2924;51.458;7.046;2023-04-01T07:00:27;3.83;;;3.33;;
5795;SDS011;2924;51.458;7.046;2023-04-01T07:02:59;4.87;;;2.87;;
5795;SDS011;2924;51.458;7.046;2023-04-01T07:05:38;2.63;;;2.43;;
5795;SDS011;2924;51.458;7.046;2023-04-01T07:08:06;2.90;;;2.70;;
5795;SDS011;2924;51.458;7.046;2023-04-01T07:13:52;3.00;;;2.80;;
5795;SDS011;2924;51.458;7.046;2023-04-01T07:16:28;2.93;;;2.67;;
5795;SDS011;2924;51.458;7.046;2023-04-01T07:19:12;3.50;;;3.17;;
5795;SDS011;2924;51.458;7.046;2023-04-01T07:21:53;2.90;;;2.80;;
5795;SDS011;2924;51.458;7.046;2023-04-01T07:24:34;3.57;;;2.83;;
5795;SDS011;2924;51.458;7.046;2023-04-01T07:27:05;3.27;;;3.07;;
5795;SDS011;2924;51.458;7.046;2023-04-01T07:29:35;3.13;;;3.00;;
5795;SDS011;2924;51.458;7.046;2023-04-01T07:32:09;3.50;;;2.77;;
5795;SDS011;2924;51.458;7.046;2023-04-01T07:35:23;3.17;;;2.97;;
5795;SDS011;2924;51.458;7.046;2023-04-01T07:40:53;4.23;;;3.83;;
5795;SDS011;2924;51.458;7.046;2023-04-01T07:58:05;4.73;;;4.30;;
5795;SDS011;2924;51.458;7.046;2023-04-01T08:01:00;5.10;;;4.70;;
5795;SDS011;2924;51.458;7.046;2023-04-01T08:03:46;4.87;;;4.33;;
5795;SDS011;2924;51.458;7.046;2023-04-01T08:06:17;6.13;;;5.73;;
5795;SDS011;2924;51.458;7.046;2023-04-01T08:11:59;8.50;;;6.00;;
5795;SDS011;2924;51.458;7.046;2023-04-01T08:14:50;6.33;;;5.73;;
5795;SDS011;2924;51.458;7.046;2023-04-01T08:20:14;6.80;;;6.20;;
5795;SDS011;2924;51.458;7.046;2023-04-01T08:23:33;8.07;;;7.27;;
5795;SDS011;2924;51.458;7.046;2023-04-01T08:26:39;11.60;;;7.33;;
5795;SDS011;2924;51.458;7.046;2023-04-01T08:28:56;8.23;;;7.13;;
5795;SDS011;2924;51.458;7.046;2023-04-01T08:31:31;8.50;;;7.70;;
5795;SDS011;2924;51.458;7.046;2023-04-01T08:34:04;7.77;;;6.97;;
5795;SDS011;2924;51.458;7.046;2023-04-01T08:36:41;7.73;;;6.40;;
5795;SDS011;2924;51.458;7.046;2023-04-01T08:39:13;8.60;;;7.57;;
5795;SDS011;2924;51.458;7.046;2023-04-01T08:44:56;7.70;;;6.90;;
5795;SDS011;2924;51.458;7.046;2023-04-01T08:58:42;10.33;;;7.10;;
5795;SDS011;2924;51.458;7.046;2023-04-01T09:13:10;9.03;;;7.20;;
5795;SDS011;2924;51.458;7.046;2023-04-01T09:16:00;10.40;;;7.70;;
5795;SDS011;2924;51.458;7.046;2023-04-01T09:21:24;11.23;;;8.13;;
5795;SDS011;2924;51.458;7.046;2023-04-01T09:24:32;12.30;;;8.20;;
5795;SDS011;2924;51.458;7.046;2023-04-01T09:49:28;11.27;;;9.33;;
5795;SDS011;2924;51.458;7.046;2023-04-01T09:52:15;15.03;;;8.30;;
5795;SDS011;2924;51.458;7.046;2023-04-01T10:24:27;10.60;;;9.10;;
5795;SDS011;2924;51.458;7.046;2023-04-01T10:29:42;9.80;;;8.60;;
5795;SDS011;2924;51.458;7.046;2023-04-01T10:49:46;10.33;;;8.70;;
5795;SDS011;2924;51.458;7.046;2023-04-01T10:55:14;8.63;;;7.50;;
5795;SDS011;2924;51.458;7.046;2023-04-01T11:12:31;10.07;;;8.10;;
5795;SDS011;2924;51.458;7.046;2023-04-01T11:21:22;12.10;;;9.17;;
5795;SDS011;2924;51.458;7.046;2023-04-01T11:46:10;10.43;;;8.80;;
5795;SDS011;2924;51.458;7.046;2023-04-01T11:51:29;11.20;;;8.87;;
5795;SDS011;2924;51.458;7.046;2023-04-01T11:57:00;9.87;;;8.17;;
5795;SDS011;2924;51.458;7.046;2023-04-01T11:59:46;10.10;;;8.30;;
5795;SDS011;2924;51.458;7.046;2023-04-01T12:02:55;11.50;;;8.00;;
5795;SDS011;2924;51.458;7.046;2023-04-01T12:05:48;9.10;;;8.20;;
5795;SDS011;2924;51.458;7.046;2023-04-01T12:08:23;13.43;;;10.23;;
5795;SDS011;2924;51.458;7.046;2023-04-01T12:13:55;9.37;;;8.50;;
5795;SDS011;2924;51.458;7.046;2023-04-01T12:22:10;10.40;;;8.63;;
5795;SDS011;2924;51.458;7.046;2023-04-01T12:41:32;10.60;;;8.53;;
5795;SDS011;2924;51.458;7.046;2023-04-01T12:44:21;9.27;;;8.37;;
5795;SDS011;2924;51.458;7.046;2023-04-01T12:50:19;10.00;;;8.50;;
5795;SDS011;2924;51.458;7.046;2023-04-01T12:55:59;13.30;;;11.37;;
5795;SDS011;2924;51.458;7.046;2023-04-01T12:59:11;11.67;;;10.47;;
5795;SDS011;2924;51.458;7.046;2023-04-01T13:09:45;10.23;;;9.03;;
5795;SDS011;2924;51.458;7.046;2023-04-01T13:15:28;8.70;;;6.80;;
5795;SDS011;2924;51.458;7.046;2023-04-01T13:18:10;8.30;;;7.40;;
5795;SDS011;2924;51.458;7.046;2023-04-01T13:24:23;11.57;;;7.93;;
5795;SDS011;2924;51.458;7.046;2023-04-01T13:29:39;20.23;;;8.53;;
5795;SDS011;2924;51.458;7.046;2023-04-01T13:32:26;15.50;;;10.73;;
5795;SDS011;2924;51.458;7.046;2023-04-01T13:43:31;15.37;;;9.80;;
5795;SDS011;2924;51.458;7.046;2023-04-01T14:00:19;9.13;;;7.43;;
5795;SDS011;2924;51.458;7.046;2023-04-01T14:05:55;9.97;;;7.10;;
5795;SDS011;2924;51.458;7.046;2023-04-01T14:11:39;8.37;;;7.00;;
5795;SDS011;2924;51.458;7.046;2023-04-01T14:20:20;7.97;;;7.23;;
5795;SDS011;2924;51.458;7.046;2023-04-01T14:25:44;9.00;;;6.60;;
5795;SDS011;2924;51.458;7.046;2023-04-01T14:34:25;12.83;;;8.40;;
5795;SDS011;2924;51.458;7.046;2023-04-01T14:42:59;11.50;;;10.23;;
5795;SDS011;2924;51.458;7.046;2023-04-01T14:45:43;15.60;;;10.80;;
5795;SDS011;2924;51.458;7.046;2023-04-01T14:50:57;14.77;;;10.63;;
5795;SDS011;2924;51.458;7.046;2023-04-01T14:54:00;13.87;;;9.40;;
5795;SDS011;2924;51.458;7.046;2023-04-01T14:59:17;10.43;;;8.53;;
5795;SDS011;2924;51.458;7.046;2023-04-01T15:15:58;9.13;;;7.63;;
5795;SDS011;2924;51.458;7.046;2023-04-01T15:21:27;11.60;;;9.23;;
5795;SDS011;2924;51.458;7.046;2023-04-01T15:24:06;9.83;;;8.80;;
5795;SDS011;2924;51.458;7.046;2023-04-01T15:32:01;10.57;;;8.67;;
5795;SDS011;2924;51.458;7.046;2023-04-01T15:34:54;9.33;;;8.47;;
5795;SDS011;2924;51.458;7.046;2023-04-01T15:37:31;10.70;;;8.70;;
5795;SDS011;2924;51.458;7.046;2023-04-01T15:42:54;12.30;;;10.10;;
5795;SDS011;2924;51.458;7.046;2023-04-01T15:48:11;13.10;;;10.40;;
5795;SDS011;2924;51.458;7.046;2023-04-01T15:58:59;11.90;;;8.40;;
5795;SDS011;2924;51.458;7.046;2023-04-01T16:01:44;7.80;;;6.07;;
5795;SDS011;2924;51.458;7.046;2023-04-01T16:13:25;6.50;;;5.90;;
5795;SDS011;2924;51.458;7.046;2023-04-01T16:21:56;7.83;;;6.60;;
5795;SDS011;2924;51.458;7.046;2023-04-01T16:24:32;8.10;;;7.07;;
5795;SDS011;2924;51.458;7.046;2023-04-01T16:29:48;11.47;;;7.50;;
5795;SDS011;2924;51.458;7.046;2023-04-01T16:35:31;8.37;;;7.63;;
5795;SDS011;2924;51.458;7.046;2023-04-01T16:43:49;24.50;;;8.30;;
5795;SDS011;2924;51.458;7.046;2023-04-01T16:54:53;12.50;;;9.27;;
5795;SDS011;2924;51.458;7.046;2023-04-01T17:08:09;8.80;;;7.90;;
5795;SDS011;2924;51.458;7.046;2023-04-01T17:10:53;9.50;;;8.10;;
5795;SDS011;2924;51.458;7.046;2023-04-01T17:22:04;11.00;;;9.20;;
5795;SDS011;2924;51.458;7.046;2023-04-01T17:27:37;13.10;;;10.40;;
5795;SDS011;2924;51.458;7.046;2023-04-01T17:35:35;12.23;;;10.07;;
5795;SDS011;2924;51.458;7.046;2023-04-01T17:58:10;20.10;;;15.13;;
5795;SDS011;2924;51.458;7.046;2023-04-01T18:03:56;22.07;;;15.93;;
5795;SDS011;2924;51.458;7.046;2023-04-01T18:09:36;20.97;;;15.20;;
5795;SDS011;2924;51.458;7.046;2023-04-01T18:18:24;21.43;;;16.30;;
5795;SDS011;2924;51.458;7.046;2023-04-01T18:26:10;21.03;;;16.00;;
5795;SDS011;2924;51.458;7.046;2023-04-01T18:31:24;22.97;;;17.50;;
5795;SDS011;2924;51.458;7.046;2023-04-01T18:34:14;21.30;;;16.60;;
5795;SDS011;2924;51.458;7.046;2023-04-01T18:37:24;22.53;;;17.13;;
5795;SDS011;2924;51.458;7.046;2023-04-01T18:45:37;25.47;;;16.87;;
5795;SDS011;2924;51.458;7.046;2023-04-01T18:51:20;21.17;;;13.57;;
5795;SDS011;2924;51.458;7.046;2023-04-01T18:53:57;17.60;;;13.00;;
5795;SDS011;2924;51.458;7.046;2023-04-01T18:56:32;19.87;;;14.40;;
5795;SDS011;2924;51.458;7.046;2023-04-01T19:04:17;21.43;;;14.73;;
5795;SDS011;2924;51.458;7.046;2023-04-01T19:06:57;27.50;;;15.90;;
5795;SDS011;2924;51.458;7.046;2023-04-01T19:09:45;19.87;;;14.13;;
5795;SDS011;2924;51.458;7.046;2023-04-01T19:20:51;15.50;;;11.50;;
5795;SDS011;2924;51.458;7.046;2023-04-01T19:26:17;13.27;;;10.33;;
5795;SDS011;2924;51.458;7.046;2023-04-01T19:31:44;11.20;;;10.00;;
5795;SDS011;2924;51.458;7.046;2023-04-01T19:39:51;6.70;;;6.03;;
5795;SDS011;2924;51.458;7.046;2023-04-01T19:56:18;4.17;;;3.87;;
5795;SDS011;2924;51.458;7.046;2023-04-01T19:58:52;6.03;;;5.57;;
5795;SDS011;2924;51.458;7.046;2023-04-01T20:04:49;5.53;;;5.03;;
5795;SDS011;2924;51.458;7.046;2023-04-01T20:07:02;5.20;;;4.80;;
5795;SDS011;2924;51.458;7.046;2023-04-01T20:12:27;4.30;;;4.00;;
5795;SDS011;2924;51.458;7.046;2023-04-01T20:17:56;5.10;;;4.70;;
5795;SDS011;2924;51.458;7.046;2023-04-01T20:20:26;6.30;;;5.80;;
5795;SDS011;2924;51.458;7.046;2023-04-01T20:25:40;5.63;;;5.23;;
5795;SDS011;2924;51.458;7.046;2023-04-01T20:41:27;5.13;;;4.63;;
5795;SDS011;2924;51.458;7.046;2023-04-01T20:44:14;4.20;;;3.90;;
5795;SDS011;2924;51.458;7.046;2023-04-01T20:50:19;6.10;;;5.60;;
5795;SDS011;2924;51.458;7.046;2023-04-01T20:53:07;5.47;;;5.07;;
5795;SDS011;2924;51.458;7.046;2023-04-01T21:15:12;4.57;;;4.27;;
5795;SDS011;2924;51.458;7.046;2023-04-01T21:17:43;4.93;;;4.53;;
5795;SDS011;2924;51.458;7.046;2023-04-01T21:23:16;4.73;;;4.33;;
5795;SDS011;2924;51.458;7.046;2023-04-01T21:29:09;6.40;;;5.80;;
5795;SDS011;2924;51.458;7.046;2023-04-01T22:05:37;9.23;;;8.00;;
5795;SDS011;2924;51.458;7.046;2023-04-01T22:14:06;10.33;;;8.43;;
5795;SDS011;2924;51.458;7.046;2023-04-01T22:19:49;8.50;;;7.50;;
5795;SDS011;2924;51.458;7.046;2023-04-01T22:28:12;8.37;;;7.57;;
5795;SDS011;2924;51.458;7.046;2023-04-01T22:30:51;7.93;;;7.23;;
5795;SDS011;2924;51.458;7.046;2023-04-01T22:43:47;8.23;;;7.40;;
5795;SDS011;2924;51.458;7.046;2023-04-01T22:51:42;8.20;;;7.33;;
5795;SDS011;2924;51.458;7.046;2023-04-01T22:54:30;8.23;;;7.43;;
5795;SDS011;2924;51.458;7.046;2023-04-01T22:57:00;7.67;;;6.97;;
5795;SDS011;2924;51.458;7.046;2023-04-01T22:59:39;8.37;;;7.47;;
5795;SDS011;2924;51.458;7.046;2023-04-01T23:02:15;8.70;;;7.90;;
5795;SDS011;2924;51.458;7.046;2023-04-01T23:04:48;11.13;;;7.43;;
5795;SDS011;2924;51.458;7.046;2023-04-01T23:09:46;10.67;;;9.57;;
5795;SDS011;2924;51.458;7.046;2023-04-01T23:12:14;9.77;;;8.77;;
5795;SDS011;2924;51.458;7.046;2023-04-01T23:14:48;10.10;;;9.10;;
5795;SDS011;2924;51.458;7.046;2023-04-01T23:20:47;15.77;;;9.97;;
5795;SDS011;2924;51.458;7.046;2023-04-01T23:26:22;10.10;;;8.87;;
5795;SDS011;2924;51.458;7.046;2023-04-01T23:28:56;11.03;;;9.90;;
5795;SDS011;2924;51.458;7.046;2023-04-01T23:36:39;11.20;;;9.87;;
5795;SDS011;2924;51.458;7.046;2023-04-01T23:39:21;11.43;;;10.13;;
5795;SDS011;2924;51.458;7.046;2023-04-01T23:42:00;9.80;;;8.80;;
5795;SDS011;2924;51.458;7.046;2023-04-01T23:44:38;9.93;;;8.93;;
5795;SDS011;2924;51.458;7.046;2023-04-01T23:47:04;9.53;;;8.57;;
5795;SDS011;2924;51.458;7.046;2023-04-01T23:49:38;9.47;;;8.30;;
5795;SDS011;2924;51.458;7.046;2023-04-01T23:52:17;9.53;;;7.40;;
5795;SDS011;2924;51.458;7.046;2023-04-01T23:57:20;8.43;;;7.57;;
5795;SDS011;2924;51.458;7.046;2023-04-01T23:59:59;9.10;;;8.10;;
